Time;durP1;ratioP1;P1;durP2;ratioP2;P2;SDS_P1;SDS_P2;PMS_P1;PMS_P2;Temp;Humidity;BMP_temperature;BMP_pressure;BME280_temperature;BME280_humidity;BME280_pressure;Samples;Min_cycle;Max_cycle;Signal;HPM_P1;HPM_P2
2024/04/01 00:02:06;;;;;;;;;2.75;1.00;;;;;;;;4992851;28;9933;-85
2024/04/01 00:04:33;;;;;;;;;1.00;1.00;;;;;;;;5005424;28;10092;-82
2024/04/01 00:07:00;;;;;;;;;1.50;1.50;;;;;;;;5010174;28;10800;-86
2024/04/01 00:09:26;;;;;;;;;1.00;1.00;;;;;;;;5011057;28;10258;-85
2024/04/01 00:11:55;;;;;;;;;1.00;1.00;;;;;;;;5010080;28;10026;-84
2024/04/01 00:14:21;;;;;;;;;3.00;2.00;;;;;;;;5000628;28;11415;-82
2024/04/01 00:16:48;;;;;;;;;1.00;1.00;;;;;;;;5010303;28;10183;-85
2024/04/01 00:19:17;;;;;;;;;1.75;1.75;;;;;;;;5010644;28;10100;-83
2024/04/01 00:21:47;;;;;;;;;1.00;1.00;;;;;;;;5010402;28;10192;-84
2024/04/01 00:24:16;;;;;;;;;3.00;2.00;;;;;;;;5009551;28;10156;-90
2024/04/01 00:26:48;;;;;;;;;2.50;2.50;;;;;;;;4997659;28;10174;-88
2024/04/01 00:29:15;;;;;;;;;2.50;2.50;;;;;;;;5001799;28;10168;-85
2024/04/01 00:31:42;;;;;;;;;1.00;1.00;;;;;;;;4999508;28;10250;-84
2024/04/01 00:34:09;;;;;;;;;1.25;1.25;;;;;;;;5010618;28;10468;-83
2024/04/01 00:36:36;;;;;;;;;1.25;1.25;;;;;;;;4999603;28;10284;-84
2024/04/01 00:39:02;;;;;;;;;2.00;2.00;;;;;;;;5010512;28;10413;-87
2024/04/01 00:41:32;;;;;;;;;4.00;4.00;;;;;;;;5007726;28;10489;-87
2024/04/01 00:43:58;;;;;;;;;2.00;2.00;;;;;;;;4994632;28;10404;-88
2024/04/01 00:46:27;;;;;;;;;3.75;3.00;;;;;;;;5009708;28;10402;-84
2024/04/01 00:48:53;;;;;;;;;1.00;1.00;;;;;;;;5010942;28;10432;-88
2024/04/01 00:51:21;;;;;;;;;2.00;2.00;;;;;;;;5010207;28;10319;-89
2024/04/01 00:53:47;;;;;;;;;4.00;4.00;;;;;;;;5011940;28;10406;-92
2024/04/01 00:56:19;;;;;;;;;2.00;2.00;;;;;;;;5006015;28;10563;-91
2024/04/01 00:58:48;;;;;;;;;4.00;4.00;;;;;;;;5012706;28;10582;-88
2024/04/01 01:01:18;;;;;;;;;4.00;3.00;;;;;;;;4997159;28;10367;-89
2024/04/01 01:03:46;;;;;;;;;3.00;3.00;;;;;;;;5012062;28;10596;-93
2024/04/01 01:06:17;;;;;;;;;3.00;3.00;;;;;;;;5016097;28;10508;-88
2024/04/01 01:08:46;;;;;;;;;3.00;3.00;;;;;;;;5017168;28;10539;-89
2024/04/01 01:11:14;;;;;;;;;4.00;4.00;;;;;;;;5005500;28;11394;-83
2024/04/01 01:13:40;;;;;;;;;3.00;3.00;;;;;;;;5008261;28;10604;-84
2024/04/01 01:16:08;;;;;;;;;3.00;3.00;;;;;;;;5002271;28;11302;-84
2024/04/01 01:18:34;;;;;;;;;3.00;3.00;;;;;;;;4993203;28;10488;-83
2024/04/01 01:21:04;;;;;;;;;2.00;2.00;;;;;;;;5003665;28;10453;-82
2024/04/01 01:23:32;;;;;;;;;3.00;3.00;;;;;;;;5004906;28;10615;-89
2024/04/01 01:25:59;;;;;;;;;3.50;3.00;;;;;;;;5003110;28;10413;-84
2024/04/01 01:28:26;;;;;;;;;4.00;4.00;;;;;;;;5009263;28;10551;-92
2024/04/01 01:30:56;;;;;;;;;2.75;2.75;;;;;;;;5008205;28;10354;-86
2024/04/01 01:33:25;;;;;;;;;3.00;3.00;;;;;;;;4997692;28;10578;-85
2024/04/01 01:35:53;;;;;;;;;3.00;3.00;;;;;;;;5003090;28;10579;-80
2024/04/01 01:38:19;;;;;;;;;4.75;3.00;;;;;;;;5004528;28;10576;-81
2024/04/01 01:40:48;;;;;;;;;4.75;4.75;;;;;;;;5003132;28;10579;-85
2024/04/01 01:43:14;;;;;;;;;6.00;3.00;;;;;;;;4994181;28;10647;-88
2024/04/01 01:45:41;;;;;;;;;4.50;4.50;;;;;;;;5010067;28;10642;-84
2024/04/01 01:48:08;;;;;;;;;3.00;3.00;;;;;;;;5011627;28;11322;-83
2024/04/01 01:50:38;;;;;;;;;2.25;2.25;;;;;;;;5010524;28;10566;-84
2024/04/01 01:53:04;;;;;;;;;1.50;1.00;;;;;;;;5009831;28;10464;-84
2024/04/01 01:55:31;;;;;;;;;2.00;2.00;;;;;;;;5002344;28;10437;-84
2024/04/01 01:57:59;;;;;;;;;3.00;3.00;;;;;;;;5004909;28;10648;-87
2024/04/01 02:00:26;;;;;;;;;1.00;1.00;;;;;;;;5008750;28;10484;-83
2024/04/01 02:02:56;;;;;;;;;2.25;2.25;;;;;;;;5008758;28;10514;-84
2024/04/01 02:05:23;;;;;;;;;2.50;2.50;;;;;;;;5010463;28;10521;-85
2024/04/01 02:07:49;;;;;;;;;3.00;2.00;;;;;;;;5010869;28;11204;-82
2024/04/01 02:10:21;;;;;;;;;3.50;2.50;;;;;;;;5003062;28;10852;-86
2024/04/01 02:12:49;;;;;;;;;2.00;2.00;;;;;;;;5011104;28;10617;-84
2024/04/01 02:15:21;;;;;;;;;2.00;2.00;;;;;;;;5009196;28;10648;-90
2024/04/01 02:17:47;;;;;;;;;1.50;1.50;;;;;;;;4996096;28;10615;-86
2024/04/01 02:20:16;;;;;;;;;1.50;1.50;;;;;;;;5011421;28;10696;-91
2024/04/01 02:22:46;;;;;;;;;2.00;2.00;;;;;;;;5012952;28;10658;-85
2024/04/01 02:25:17;;;;;;;;;2.75;2.75;;;;;;;;5013381;28;10646;-86
2024/04/01 02:27:47;;;;;;;;;1.75;1.50;;;;;;;;5011814;28;11006;-86
2024/04/01 02:30:15;;;;;;;;;3.00;1.25;;;;;;;;5012394;28;10487;-86
2024/04/01 02:32:46;;;;;;;;;1.75;1.75;;;;;;;;4994671;28;10494;-85
2024/04/01 02:35:16;;;;;;;;;1.00;1.00;;;;;;;;4998151;28;10431;-88
2024/04/01 02:37:42;;;;;;;;;5.50;3.00;;;;;;;;5012832;28;10380;-84
2024/04/01 02:40:10;;;;;;;;;3.00;1.00;;;;;;;;5001245;28;10570;-89
2024/04/01 02:42:39;;;;;;;;;3.00;2.25;;;;;;;;5003358;28;10531;-85
2024/04/01 02:45:07;;;;;;;;;3.75;2.25;;;;;;;;5013898;28;10481;-87
2024/04/01 02:47:33;;;;;;;;;3.75;3.75;;;;;;;;5005878;28;10490;-86
2024/04/01 02:50:02;;;;;;;;;3.00;3.00;;;;;;;;5005912;28;11461;-87
2024/04/01 02:52:28;;;;;;;;;4.00;4.00;;;;;;;;5007451;28;10479;-89
2024/04/01 02:54:56;;;;;;;;;4.00;4.00;;;;;;;;5002750;28;10794;-84
2024/04/01 02:57:22;;;;;;;;;3.50;3.00;;;;;;;;5008773;28;10722;-89
2024/04/01 02:59:49;;;;;;;;;4.75;3.50;;;;;;;;5015160;28;10551;-90
2024/04/01 03:02:16;;;;;;;;;4.00;4.00;;;;;;;;5007566;28;10435;-91
2024/04/01 03:04:44;;;;;;;;;4.75;4.75;;;;;;;;5011252;28;11363;-82
2024/04/01 03:07:12;;;;;;;;;7.25;5.75;;;;;;;;5012562;28;10624;-86
2024/04/01 03:09:45;;;;;;;;;5.00;5.00;;;;;;;;5011356;28;10637;-91
2024/04/01 03:12:11;;;;;;;;;8.75;6.25;;;;;;;;5012887;28;10647;-84
2024/04/01 03:14:38;;;;;;;;;6.00;6.00;;;;;;;;4996442;28;10693;-83
2024/04/01 03:17:05;;;;;;;;;5.00;5.00;;;;;;;;4994301;28;10647;-82
2024/04/01 03:19:32;;;;;;;;;5.25;5.25;;;;;;;;5010260;28;10644;-86
2024/04/01 03:21:58;;;;;;;;;5.75;5.75;;;;;;;;5011819;28;10539;-81
2024/04/01 03:24:27;;;;;;;;;3.75;3.75;;;;;;;;5011425;28;10575;-84
2024/04/01 03:26:53;;;;;;;;;5.50;5.50;;;;;;;;5011713;28;10687;-86
2024/04/01 03:29:21;;;;;;;;;5.00;5.00;;;;;;;;5002215;28;10755;-89
2024/04/01 03:31:47;;;;;;;;;4.00;4.00;;;;;;;;5010730;28;11543;-85
2024/04/01 03:34:17;;;;;;;;;4.00;4.00;;;;;;;;4994587;28;10791;-84
2024/04/01 03:36:46;;;;;;;;;6.00;4.75;;;;;;;;5000152;28;10801;-83
2024/04/01 03:39:14;;;;;;;;;4.25;4.25;;;;;;;;5012624;28;10865;-82
2024/04/01 03:41:42;;;;;;;;;6.25;4.00;;;;;;;;5010176;28;10720;-80
2024/04/01 03:44:09;;;;;;;;;5.00;5.00;;;;;;;;5000838;28;10717;-85
2024/04/01 03:46:35;;;;;;;;;5.25;4.25;;;;;;;;5011296;28;10822;-86
2024/04/01 03:49:03;;;;;;;;;3.00;3.00;;;;;;;;5012258;28;11390;-87
2024/04/01 03:51:30;;;;;;;;;5.00;5.00;;;;;;;;5015364;28;10844;-82
2024/04/01 03:53:57;;;;;;;;;5.00;5.00;;;;;;;;5011747;28;11019;-90
2024/04/01 03:56:23;;;;;;;;;4.25;4.25;;;;;;;;5010375;28;10994;-82
2024/04/01 03:58:52;;;;;;;;;5.50;3.50;;;;;;;;5009278;28;11177;-91
2024/04/01 04:01:18;;;;;;;;;5.25;5.25;;;;;;;;5011104;28;11093;-86
2024/04/01 04:03:46;;;;;;;;;4.00;4.00;;;;;;;;5010903;28;11162;-85
2024/04/01 04:06:15;;;;;;;;;7.75;6.25;;;;;;;;5007880;28;11101;-85
2024/04/01 04:08:47;;;;;;;;;6.25;6.25;;;;;;;;4993039;28;11527;-85
2024/04/01 04:11:20;;;;;;;;;4.00;4.00;;;;;;;;5008660;28;11164;-83
2024/04/01 04:13:48;;;;;;;;;3.00;3.00;;;;;;;;4999401;28;11524;-85
2024/04/01 04:16:16;;;;;;;;;6.75;5.25;;;;;;;;4998576;28;11207;-86
2024/04/01 04:18:45;;;;;;;;;6.00;6.00;;;;;;;;5010774;28;11537;-87
2024/04/01 04:21:11;;;;;;;;;8.00;4.00;;;;;;;;4999012;28;11500;-90
2024/04/01 04:23:39;;;;;;;;;6.25;6.25;;;;;;;;5002382;28;11533;-85
2024/04/01 04:26:08;;;;;;;;;4.00;4.00;;;;;;;;5013300;28;11471;-88
2024/04/01 04:28:36;;;;;;;;;4.00;4.00;;;;;;;;4998512;28;11358;-85
2024/04/01 04:31:02;;;;;;;;;2.50;2.50;;;;;;;;5010410;28;11090;-85
2024/04/01 04:33:30;;;;;;;;;4.00;4.00;;;;;;;;5011036;28;11253;-87
2024/04/01 04:35:58;;;;;;;;;5.25;5.25;;;;;;;;4999943;28;11243;-85
2024/04/01 04:38:25;;;;;;;;;4.00;4.00;;;;;;;;5012790;28;11165;-90
2024/04/01 04:40:51;;;;;;;;;5.00;5.00;;;;;;;;5001616;28;11501;-87
2024/04/01 04:43:18;;;;;;;;;5.25;5.25;;;;;;;;5014193;28;11125;-92
2024/04/01 04:45:48;;;;;;;;;5.25;5.25;;;;;;;;4996623;28;11228;-87
2024/04/01 04:48:18;;;;;;;;;6.75;6.75;;;;;;;;4998349;28;11057;-89
2024/04/01 04:50:48;;;;;;;;;7.50;5.75;;;;;;;;5003235;28;11114;-89
2024/04/01 04:53:19;;;;;;;;;7.25;7.25;;;;;;;;4997136;28;11786;-88
2024/04/01 04:55:45;;;;;;;;;7.50;7.50;;;;;;;;4992315;28;11011;-84
2024/04/01 04:58:12;;;;;;;;;8.00;6.50;;;;;;;;5007524;28;11721;-88
2024/04/01 05:00:38;;;;;;;;;5.25;5.25;;;;;;;;5009979;28;10988;-82
2024/04/01 05:03:07;;;;;;;;;6.25;6.25;;;;;;;;5009652;28;11238;-83
2024/04/01 05:05:34;;;;;;;;;9.75;6.25;;;;;;;;5009246;28;11669;-86
2024/04/01 05:08:07;;;;;;;;;7.00;7.00;;;;;;;;5006066;28;10763;-82
2024/04/01 05:10:34;;;;;;;;;7.75;4.00;;;;;;;;4991315;28;10913;-89
2024/04/01 05:13:01;;;;;;;;;8.75;6.50;;;;;;;;5008918;28;10801;-88
2024/04/01 05:15:28;;;;;;;;;6.75;4.50;;;;;;;;5009282;28;10781;-81
2024/04/01 05:17:57;;;;;;;;;6.00;4.50;;;;;;;;4995236;28;10792;-91
2024/04/01 05:20:23;;;;;;;;;3.00;3.00;;;;;;;;4993084;28;10783;-91
2024/04/01 05:22:50;;;;;;;;;6.50;4.00;;;;;;;;4996620;28;10702;-75
2024/04/01 05:25:18;;;;;;;;;1.00;1.00;;;;;;;;5007940;28;10692;-74
2024/04/01 05:27:45;;;;;;;;;7.50;5.50;;;;;;;;4996896;28;10937;-75
2024/04/01 05:30:11;;;;;;;;;4.50;4.50;;;;;;;;5015163;28;10809;-77
2024/04/01 05:32:39;;;;;;;;;3.50;3.50;;;;;;;;5007616;28;10705;-79
2024/04/01 05:35:06;;;;;;;;;3.75;3.50;;;;;;;;5008061;28;10738;-77
2024/04/01 05:37:33;;;;;;;;;4.00;4.00;;;;;;;;5002745;28;10652;-78
2024/04/01 05:39:59;;;;;;;;;5.75;5.75;;;;;;;;5003132;28;10849;-78
2024/04/01 05:42:30;;;;;;;;;3.25;3.25;;;;;;;;5003508;28;10778;-76
2024/04/01 05:44:57;;;;;;;;;3.50;3.50;;;;;;;;5004122;28;10646;-79
2024/04/01 05:47:24;;;;;;;;;5.00;3.00;;;;;;;;4993550;28;10731;-77
2024/04/01 05:49:50;;;;;;;;;4.25;4.00;;;;;;;;4995070;28;10604;-77
2024/04/01 05:52:17;;;;;;;;;5.75;5.75;;;;;;;;4995175;28;10617;-80
2024/04/01 05:54:44;;;;;;;;;3.00;3.00;;;;;;;;4995589;28;10592;-80
2024/04/01 05:57:16;;;;;;;;;4.00;4.00;;;;;;;;5012137;28;10603;-79
2024/04/01 05:59:46;;;;;;;;;0.00;0.00;;;;;;;;5011846;28;10752;-77
2024/04/01 06:02:13;;;;;;;;;3.00;3.00;;;;;;;;5002174;28;10598;-78
2024/04/01 06:04:39;;;;;;;;;3.00;3.00;;;;;;;;5011795;28;10716;-78
2024/04/01 06:07:07;;;;;;;;;4.00;4.00;;;;;;;;5008238;28;10609;-77
2024/04/01 06:09:34;;;;;;;;;4.00;4.00;;;;;;;;5000749;28;10471;-79
2024/04/01 06:12:02;;;;;;;;;4.00;4.00;;;;;;;;4997643;28;10656;-79
2024/04/01 06:14:28;;;;;;;;;5.00;5.00;;;;;;;;5002950;28;10700;-76
2024/04/01 06:16:56;;;;;;;;;5.00;5.00;;;;;;;;5000702;28;10827;-78
2024/04/01 06:19:23;;;;;;;;;5.00;5.00;;;;;;;;5000056;28;10586;-79
2024/04/01 06:21:50;;;;;;;;;3.50;3.50;;;;;;;;5006352;28;10694;-78
2024/04/01 06:24:18;;;;;;;;;4.50;4.50;;;;;;;;5012645;28;10577;-79
2024/04/01 06:26:48;;;;;;;;;4.00;4.00;;;;;;;;5012893;28;10694;-80
2024/04/01 06:29:15;;;;;;;;;5.00;5.00;;;;;;;;5005409;28;10547;-78
2024/04/01 06:32:01;;;;;;;;;4.50;4.50;;;;;;;;5005885;28;10568;-77
2024/04/01 06:34:28;;;;;;;;;3.25;3.25;;;;;;;;5006008;28;10547;-78
2024/04/01 06:36:55;;;;;;;;;4.75;4.75;;;;;;;;5014702;28;10559;-80
2024/04/01 06:39:21;;;;;;;;;3.50;3.50;;;;;;;;5007112;28;11367;-80
2024/04/01 06:41:48;;;;;;;;;2.00;2.00;;;;;;;;5012689;28;11120;-78
2024/04/01 06:44:17;;;;;;;;;2.75;2.75;;;;;;;;5011215;28;10341;-80
2024/04/01 06:46:45;;;;;;;;;2.00;2.00;;;;;;;;5010611;28;10345;-77
2024/04/01 06:49:15;;;;;;;;;2.75;2.75;;;;;;;;5012023;28;10348;-82
2024/04/01 06:51:42;;;;;;;;;5.75;4.00;;;;;;;;5009262;28;10450;-81
2024/04/01 06:54:08;;;;;;;;;5.00;3.00;;;;;;;;5011372;28;10368;-81
2024/04/01 06:56:36;;;;;;;;;3.00;3.00;;;;;;;;5010182;28;10190;-78
2024/04/01 06:59:02;;;;;;;;;2.00;2.00;;;;;;;;5011167;28;10129;-79
2024/04/01 07:01:30;;;;;;;;;2.00;2.00;;;;;;;;5010207;28;10201;-81
2024/04/01 07:03:56;;;;;;;;;2.00;2.00;;;;;;;;5006422;28;10075;-79
2024/04/01 07:06:30;;;;;;;;;4.00;3.75;;;;;;;;5009831;28;9928;-78
2024/04/01 07:08:57;;;;;;;;;3.25;1.00;;;;;;;;5011395;28;10203;-79
2024/04/01 07:11:27;;;;;;;;;2.50;2.50;;;;;;;;5008128;28;9969;-79
2024/04/01 07:13:53;;;;;;;;;2.00;2.00;;;;;;;;4995714;28;9888;-79
2024/04/01 07:16:20;;;;;;;;;5.50;5.50;;;;;;;;5011075;28;9889;-79
2024/04/01 07:18:46;;;;;;;;;3.00;3.00;;;;;;;;5010597;28;10492;-77
2024/04/01 07:21:16;;;;;;;;;1.00;1.00;;;;;;;;5000120;28;9898;-81
2024/04/01 07:23:46;;;;;;;;;2.00;2.00;;;;;;;;5011068;28;9640;-79
2024/04/01 07:26:16;;;;;;;;;2.00;2.00;;;;;;;;5007574;28;9769;-79
2024/04/01 07:28:43;;;;;;;;;2.00;2.00;;;;;;;;5006214;28;9711;-83
2024/04/01 07:31:12;;;;;;;;;2.50;1.50;;;;;;;;5010218;28;9788;-78
2024/04/01 07:33:38;;;;;;;;;0.25;0.25;;;;;;;;5010669;28;9719;-80
2024/04/01 07:36:06;;;;;;;;;2.75;2.75;;;;;;;;5002338;28;9699;-83
2024/04/01 07:38:32;;;;;;;;;3.75;2.00;;;;;;;;5009514;28;9610;-77
2024/04/01 07:41:01;;;;;;;;;1.00;1.00;;;;;;;;5009124;28;9624;-77
2024/04/01 07:43:27;;;;;;;;;0.25;0.25;;;;;;;;5005926;28;9632;-79
2024/04/01 07:46:09;;;;;;;;;2.00;2.00;;;;;;;;5010570;28;9622;-78
2024/04/01 07:48:38;;;;;;;;;3.00;2.00;;;;;;;;5009277;28;9696;-84
2024/04/01 07:51:05;;;;;;;;;1.00;1.00;;;;;;;;5002875;28;9472;-79
2024/04/01 07:53:33;;;;;;;;;1.00;1.00;;;;;;;;5009077;28;9465;-79
2024/04/01 07:56:02;;;;;;;;;0.50;0.50;;;;;;;;4995743;28;9492;-76
2024/04/01 07:58:28;;;;;;;;;1.00;1.00;;;;;;;;5009196;28;9477;-77
2024/04/01 08:00:57;;;;;;;;;2.33;1.00;;;;;;;;5009772;28;9346;-80
2024/04/01 08:03:23;;;;;;;;;1.25;1.25;;;;;;;;5010346;28;9523;-83
2024/04/01 08:05:51;;;;;;;;;11.75;11.75;;;;;;;;5009882;28;10129;-78
2024/04/01 08:08:17;;;;;;;;;33.50;32.25;;;;;;;;5007577;28;11468;-78
2024/04/01 08:10:46;;;;;;;;;20.25;20.25;;;;;;;;5008572;28;11862;-78
2024/04/01 08:13:18;;;;;;;;;14.00;14.00;;;;;;;;5009760;28;10744;-76
2024/04/01 08:15:47;;;;;;;;;3.50;3.50;;;;;;;;5009840;28;10825;-75
2024/04/01 08:18:16;;;;;;;;;1.50;1.50;;;;;;;;5002643;28;10117;-77
2024/04/01 08:20:43;;;;;;;;;3.00;1.00;;;;;;;;5005800;28;9785;-79
2024/04/01 08:23:10;;;;;;;;;0.00;0.00;;;;;;;;5010839;28;9668;-76
2024/04/01 08:25:39;;;;;;;;;1.00;1.00;;;;;;;;5010307;28;9182;-78
2024/04/01 08:28:05;;;;;;;;;1.00;0.67;;;;;;;;5006376;28;9453;-81
2024/04/01 08:30:34;;;;;;;;;1.00;1.00;;;;;;;;5009750;28;9185;-80
2024/04/01 08:33:00;;;;;;;;;0.00;0.00;;;;;;;;5005293;28;9271;-80
2024/04/01 08:35:30;;;;;;;;;0.67;0.67;;;;;;;;5005120;28;9337;-79
2024/04/01 08:37:59;;;;;;;;;3.33;1.67;;;;;;;;5005151;28;9383;-77
2024/04/01 08:40:31;;;;;;;;;2.50;2.00;;;;;;;;5003717;28;9392;-76
2024/04/01 08:43:01;;;;;;;;;0.50;0.00;;;;;;;;5000291;28;9477;-78
2024/04/01 08:45:37;;;;;;;;;2.25;2.25;;;;;;;;5003446;28;9491;-78
2024/04/01 08:48:08;;;;;;;;;3.50;3.50;;;;;;;;4991784;28;9763;-81
2024/04/01 08:50:38;;;;;;;;;2.00;2.00;;;;;;;;5007268;28;9419;-77
2024/04/01 08:53:12;;;;;;;;;1.33;1.33;;;;;;;;5008140;28;9417;-78
2024/04/01 08:55:39;;;;;;;;;1.00;1.00;;;;;;;;4998684;28;9367;-81
2024/04/01 08:58:06;;;;;;;;;0.33;0.33;;;;;;;;5000113;28;9403;-78
2024/04/01 09:00:34;;;;;;;;;0.33;0.33;;;;;;;;4993072;28;9117;-79
2024/04/01 09:03:01;;;;;;;;;1.33;1.33;;;;;;;;5006535;28;9095;-84
2024/04/01 09:05:30;;;;;;;;;1.33;1.33;;;;;;;;5009323;28;9323;-76
2024/04/01 09:08:00;;;;;;;;;0.00;0.00;;;;;;;;5004651;28;9429;-78
2024/04/01 09:10:30;;;;;;;;;0.67;0.67;;;;;;;;5013973;28;9179;-79
2024/04/01 09:13:00;;;;;;;;;0.67;0.00;;;;;;;;4998803;28;9265;-79
2024/04/01 09:15:29;;;;;;;;;1.00;1.00;;;;;;;;4998871;28;9016;-77
2024/04/01 09:18:09;;;;;;;;;0.67;0.67;;;;;;;;5008673;28;9944;-79
2024/04/01 09:20:35;;;;;;;;;1.00;1.00;;;;;;;;5008758;28;9105;-79
2024/04/01 09:23:03;;;;;;;;;1.00;1.00;;;;;;;;4997004;28;9089;-81
2024/04/01 09:25:34;;;;;;;;;1.67;1.00;;;;;;;;4996899;28;9217;-82
2024/04/01 09:28:01;;;;;;;;;2.00;2.00;;;;;;;;5001598;28;9069;-80
2024/04/01 09:30:31;;;;;;;;;1.00;1.00;;;;;;;;5002907;28;8967;-76
2024/04/01 09:33:00;;;;;;;;;2.00;2.00;;;;;;;;5008832;28;9020;-76
2024/04/01 09:35:30;;;;;;;;;0.00;0.00;;;;;;;;5007487;28;9015;-77
2024/04/01 09:38:00;;;;;;;;;2.67;1.00;;;;;;;;5008574;28;9198;-79
2024/04/01 09:40:30;;;;;;;;;2.00;1.00;;;;;;;;5005653;28;9261;-80
2024/04/01 09:43:00;;;;;;;;;0.33;0.33;;;;;;;;5000594;28;9262;-79
2024/04/01 09:45:29;;;;;;;;;1.00;1.00;;;;;;;;5007889;28;9350;-77
2024/04/01 09:47:59;;;;;;;;;3.00;2.00;;;;;;;;5007869;28;9329;-76
2024/04/01 09:50:29;;;;;;;;;2.33;2.00;;;;;;;;5007810;28;10115;-81
2024/04/01 09:53:00;;;;;;;;;1.33;1.33;;;;;;;;5008638;28;10175;-77
2024/04/01 09:55:30;;;;;;;;;1.00;1.00;;;;;;;;5002501;28;9392;-79
2024/04/01 09:58:21;;;;;;;;;1.00;1.00;;;;;;;;5005153;28;10247;-79
2024/04/01 10:00:51;;;;;;;;;0.00;0.00;;;;;;;;4994844;28;9207;-79
2024/04/01 10:03:54;;;;;;;;;3.00;1.00;;;;;;;;5008834;28;9098;-77
2024/04/01 10:06:55;;;;;;;;;1.67;1.67;;;;;;;;4997161;28;9219;-78
2024/04/01 10:10:06;;;;;;;;;1.00;1.00;;;;;;;;5009812;28;9098;-79
2024/04/01 10:13:08;;;;;;;;;0.00;0.00;;;;;;;;4990701;28;9025;-77
2024/04/01 10:16:12;;;;;;;;;0.00;0.00;;;;;;;;4988266;28;9049;-75
2024/04/01 10:19:02;;;;;;;;;1.00;1.00;;;;;;;;4990559;28;8875;-77
2024/04/01 10:21:50;;;;;;;;;1.00;1.00;;;;;;;;4990075;28;9041;-81
2024/04/01 10:25:02;;;;;;;;;1.75;1.00;;;;;;;;4993911;28;9007;-77
2024/04/01 10:28:06;;;;;;;;;1.00;1.00;;;;;;;;4946086;29;8899;-77
2024/04/01 10:31:07;;;;;;;;;0.00;0.00;;;;;;;;4941228;28;10201;-77
2024/04/01 10:34:05;;;;;;;;;0.00;0.00;;;;;;;;5014446;28;8874;-77
2024/04/01 10:36:46;;;;;;;;;0.00;0.00;;;;;;;;5000915;28;8859;-79
2024/04/01 10:39:36;;;;;;;;;0.75;0.25;;;;;;;;5007561;28;8852;-77
2024/04/01 10:42:34;;;;;;;;;0.00;0.00;;;;;;;;5008288;28;8852;-79
2024/04/01 10:45:31;;;;;;;;;0.00;0.00;;;;;;;;5010878;28;8998;-76
2024/04/01 10:48:25;;;;;;;;;0.25;0.25;;;;;;;;4979997;28;8918;-79
2024/04/01 10:51:32;;;;;;;;;0.00;0.00;;;;;;;;5003613;28;8930;-83
2024/04/01 10:54:00;;;;;;;;;0.00;0.00;;;;;;;;4916937;29;9028;-79
2024/04/01 10:57:04;;;;;;;;;0.00;0.00;;;;;;;;4995164;28;8930;-81
2024/04/01 11:00:06;;;;;;;;;0.50;0.50;;;;;;;;5006808;28;8872;-81
2024/04/01 11:03:10;;;;;;;;;0.00;0.00;;;;;;;;4980861;28;8816;-81
2024/04/01 11:06:36;;;;;;;;;0.25;0.00;;;;;;;;4979381;28;8871;-80
2024/04/01 11:09:16;;;;;;;;;0.50;0.50;;;;;;;;4992821;28;9001;-79
2024/04/01 11:11:55;;;;;;;;;1.00;0.25;;;;;;;;4999326;28;8880;-83
2024/04/01 11:14:21;;;;;;;;;1.50;0.00;;;;;;;;5008583;28;8890;-82
2024/04/01 11:16:54;;;;;;;;;2.00;0.00;;;;;;;;5001364;28;8871;-82
2024/04/01 11:19:39;;;;;;;;;0.00;0.00;;;;;;;;5010064;28;8946;-80
2024/04/01 11:22:12;;;;;;;;;0.50;0.00;;;;;;;;5005355;28;8860;-79
2024/04/01 11:24:48;;;;;;;;;0.00;0.00;;;;;;;;5005878;28;8872;-78
2024/04/01 11:27:28;;;;;;;;;1.00;1.00;;;;;;;;5003680;28;9660;-77
2024/04/01 11:30:08;;;;;;;;;1.00;1.00;;;;;;;;5004411;28;8856;-79
2024/04/01 11:32:38;;;;;;;;;0.75;0.75;;;;;;;;5009710;28;8813;-81
2024/04/01 11:35:12;;;;;;;;;0.00;0.00;;;;;;;;5005375;28;8863;-78
2024/04/01 11:37:50;;;;;;;;;0.50;0.50;;;;;;;;5006249;28;8848;-81
2024/04/01 11:40:25;;;;;;;;;1.50;0.75;;;;;;;;5005146;28;8857;-81
2024/04/01 11:42:59;;;;;;;;;1.00;1.00;;;;;;;;5001812;28;8884;-77
2024/04/01 11:45:28;;;;;;;;;1.00;1.00;;;;;;;;5001489;28;8871;-79
2024/04/01 11:47:55;;;;;;;;;1.00;1.00;;;;;;;;5008796;28;8856;-78
2024/04/01 11:50:22;;;;;;;;;0.00;0.00;;;;;;;;5008647;28;8997;-79
2024/04/01 11:53:01;;;;;;;;;0.50;0.50;;;;;;;;5008785;28;8891;-77
2024/04/01 11:55:31;;;;;;;;;1.00;1.00;;;;;;;;5010572;28;8867;-79
2024/04/01 11:58:08;;;;;;;;;0.00;0.00;;;;;;;;5011139;28;8930;-75
2024/04/01 12:00:35;;;;;;;;;4.00;0.25;;;;;;;;5009885;28;8769;-80
2024/04/01 12:03:03;;;;;;;;;0.50;0.50;;;;;;;;5001904;28;8872;-79
2024/04/01 12:05:29;;;;;;;;;2.00;0.50;;;;;;;;4992561;28;8847;-79
2024/04/01 12:08:00;;;;;;;;;1.25;0.50;;;;;;;;4995822;28;8861;-80
2024/04/01 12:10:28;;;;;;;;;0.50;0.50;;;;;;;;5011525;28;8856;-80
2024/04/01 12:12:56;;;;;;;;;0.00;0.00;;;;;;;;4999036;28;8872;-80
2024/04/01 12:15:22;;;;;;;;;0.50;0.50;;;;;;;;5009676;28;8853;-77
2024/04/01 12:17:50;;;;;;;;;1.00;1.00;;;;;;;;5008380;28;8971;-77
2024/04/01 12:20:17;;;;;;;;;2.00;0.00;;;;;;;;4999000;28;8870;-77
2024/04/01 12:22:47;;;;;;;;;2.25;0.50;;;;;;;;5007876;28;8875;-77
2024/04/01 12:25:14;;;;;;;;;2.00;1.00;;;;;;;;4999360;28;8859;-80
2024/04/01 12:27:47;;;;;;;;;1.75;0.50;;;;;;;;4991774;28;9641;-74
2024/04/01 12:30:18;;;;;;;;;0.50;0.50;;;;;;;;4992110;28;8866;-75
2024/04/01 12:32:47;;;;;;;;;0.00;0.00;;;;;;;;5009295;28;8865;-75
2024/04/01 12:35:16;;;;;;;;;1.00;1.00;;;;;;;;4997578;28;9776;-77
2024/04/01 12:37:44;;;;;;;;;0.25;0.25;;;;;;;;5001589;28;8933;-77
2024/04/01 12:40:11;;;;;;;;;1.00;1.00;;;;;;;;5004797;28;8836;-78
2024/04/01 12:42:38;;;;;;;;;0.75;0.75;;;;;;;;5009098;28;8852;-78
2024/04/01 12:45:09;;;;;;;;;2.00;1.00;;;;;;;;4996520;28;9642;-78
2024/04/01 12:47:37;;;;;;;;;1.50;1.50;;;;;;;;4999566;28;8855;-76
2024/04/01 12:50:08;;;;;;;;;1.00;1.00;;;;;;;;5003167;28;8872;-76
2024/04/01 12:52:42;;;;;;;;;0.50;0.00;;;;;;;;4990614;28;8867;-73
2024/04/01 12:55:18;;;;;;;;;0.75;0.75;;;;;;;;5007102;28;9002;-76
2024/04/01 12:58:11;;;;;;;;;1.00;1.00;;;;;;;;5007756;28;8849;-74
2024/04/01 13:00:40;;;;;;;;;0.25;0.25;;;;;;;;5007927;28;8790;-75
2024/04/01 13:03:39;;;;;;;;;1.25;1.25;;;;;;;;5007469;28;8902;-76
2024/04/01 13:06:27;;;;;;;;;0.00;0.00;;;;;;;;4953035;28;8883;-74
2024/04/01 13:09:03;;;;;;;;;0.50;0.50;;;;;;;;5008554;28;8856;-74
2024/04/01 13:11:44;;;;;;;;;3.50;1.25;;;;;;;;5007967;28;8860;-76
2024/04/01 13:14:31;;;;;;;;;0.75;0.50;;;;;;;;4996486;28;8854;-74
2024/04/01 13:17:13;;;;;;;;;1.00;1.00;;;;;;;;5008624;28;8852;-73
2024/04/01 13:19:47;;;;;;;;;1.00;1.00;;;;;;;;4996009;28;8852;-74
2024/04/01 13:22:24;;;;;;;;;3.00;1.25;;;;;;;;4996591;28;8885;-75
2024/04/01 13:24:57;;;;;;;;;1.00;1.00;;;;;;;;5000274;28;8866;-76
2024/04/01 13:27:32;;;;;;;;;1.00;1.00;;;;;;;;5006045;28;8950;-77
2024/04/01 13:30:05;;;;;;;;;2.00;2.00;;;;;;;;5008874;28;8860;-78
2024/04/01 13:32:44;;;;;;;;;3.50;2.00;;;;;;;;5003712;28;8812;-78
2024/04/01 13:35:31;;;;;;;;;4.00;2.00;;;;;;;;5004033;28;8995;-76
2024/04/01 13:38:02;;;;;;;;;1.50;1.25;;;;;;;;4991466;28;8871;-79
2024/04/01 13:40:46;;;;;;;;;4.00;2.00;;;;;;;;5008139;28;8855;-76
2024/04/01 13:43:29;;;;;;;;;4.75;2.00;;;;;;;;4998376;28;8990;-78
2024/04/01 13:46:17;;;;;;;;;2.00;2.00;;;;;;;;5000965;28;8868;-76
2024/04/01 13:49:00;;;;;;;;;1.00;1.00;;;;;;;;4997945;28;8860;-75
2024/04/01 13:51:42;;;;;;;;;1.00;1.00;;;;;;;;4999942;28;8881;-76
2024/04/01 13:54:16;;;;;;;;;1.00;1.00;;;;;;;;4994595;28;8844;-75
2024/04/01 13:57:02;;;;;;;;;0.00;0.00;;;;;;;;4999562;28;9631;-76
2024/04/01 13:59:35;;;;;;;;;1.00;1.00;;;;;;;;5007462;28;8880;-75
2024/04/01 14:02:20;;;;;;;;;2.00;1.00;;;;;;;;4996631;28;8843;-75
2024/04/01 14:05:00;;;;;;;;;2.00;1.00;;;;;;;;5000924;28;8971;-78
2024/04/01 14:07:45;;;;;;;;;2.75;1.00;;;;;;;;5008377;28;9744;-78
2024/04/01 14:10:17;;;;;;;;;1.00;1.00;;;;;;;;4998148;28;9643;-77
2024/04/01 14:12:55;;;;;;;;;0.50;0.50;;;;;;;;4995831;28;8889;-77
2024/04/01 14:15:33;;;;;;;;;1.50;1.50;;;;;;;;5008987;28;8878;-78
2024/04/01 14:18:10;;;;;;;;;1.00;1.00;;;;;;;;5011472;28;8852;-80
2024/04/01 14:20:44;;;;;;;;;1.00;1.00;;;;;;;;5013299;28;8878;-79
2024/04/01 14:23:12;;;;;;;;;1.50;1.00;;;;;;;;5004671;28;8880;-78
2024/04/01 14:25:52;;;;;;;;;1.00;1.00;;;;;;;;5001467;28;8841;-76
2024/04/01 14:28:21;;;;;;;;;1.00;1.00;;;;;;;;5012450;28;8860;-76
2024/04/01 14:30:47;;;;;;;;;1.00;1.00;;;;;;;;5010120;28;9243;-76
2024/04/01 14:33:18;;;;;;;;;1.00;1.00;;;;;;;;5000422;28;8909;-76
2024/04/01 14:35:47;;;;;;;;;0.00;0.00;;;;;;;;4999560;28;8888;-79
2024/04/01 14:38:17;;;;;;;;;0.00;0.00;;;;;;;;4999662;28;8973;-78
2024/04/01 14:40:46;;;;;;;;;0.00;0.00;;;;;;;;5010419;28;8853;-81
2024/04/01 14:43:15;;;;;;;;;0.00;0.00;;;;;;;;4999791;28;8863;-79
2024/04/01 14:45:42;;;;;;;;;2.00;0.00;;;;;;;;4999957;28;8874;-77
2024/04/01 14:48:14;;;;;;;;;0.00;0.00;;;;;;;;5011329;28;8954;-78
2024/04/01 14:50:40;;;;;;;;;0.25;0.25;;;;;;;;5001304;28;8918;-77
2024/04/01 14:53:13;;;;;;;;;1.00;1.00;;;;;;;;4999632;28;8978;-76
2024/04/01 14:55:40;;;;;;;;;1.00;0.75;;;;;;;;5011050;28;8868;-77
2024/04/01 14:58:08;;;;;;;;;0.00;0.00;;;;;;;;5007756;28;8845;-76
2024/04/01 15:00:34;;;;;;;;;1.75;0.00;;;;;;;;4992189;28;8785;-77
2024/04/01 15:03:06;;;;;;;;;0.00;0.00;;;;;;;;4997896;28;9576;-77
2024/04/01 15:05:33;;;;;;;;;0.00;0.00;;;;;;;;5000994;28;8863;-74
2024/04/01 15:08:01;;;;;;;;;0.00;0.00;;;;;;;;5004895;28;8906;-76
2024/04/01 15:10:32;;;;;;;;;0.00;0.00;;;;;;;;4993021;28;8871;-75
2024/04/01 15:13:05;;;;;;;;;0.00;0.00;;;;;;;;4993221;28;8997;-72
2024/04/01 15:15:33;;;;;;;;;0.00;0.00;;;;;;;;5007941;28;9013;-78
2024/04/01 15:18:01;;;;;;;;;1.00;1.00;;;;;;;;5007168;28;8859;-76